Terminal Aerodrome Forecast
Issued by NWS

Home | Current Version | Previous Version | Text Only | Print | Product List | Glossary On
Versions: 1 2 3 4 5 6 7 8 9 10 11 12 13 14 15 16 17 18 19 20 21 22 23 24 25 26 27 28 29 30
000
FTUS44 KLIX 040533
TAFHUM
TAF
KHUM 040533Z 0406/0506 VRB03KT P6SM SCT250
     FM040900 00000KT 5SM BR SCT020 BKN200
     FM041400 12005KT P6SM SCT035
     FM041700 13007KT P6SM VCSH SCT035 BKN250
     FM050100 16005KT P6SM SCT090 BKN250=

USA.gov is the U.S. government's official web portal to all federal, state and local government web resources and services.